^^
Saratoga-Weather Station Historical Data
 
Daily Summary for September 29, 2020 Units:  Metric    English   Both
Daily Weekly Monthly Yearly
  Current: High: Low: Average:
Temperature: 15.4 °C 15.4 °C 11.3 °C 12.2 °C
Dew Point: 10.9 °C 10.9 °C 8.6 °C 9.2 °C
Humidity: 74.5% 85% 74.5% 82%
Wind Speed: 1.7km/h 5km/h 0km/h 1.3km/h
Wind Gust: 0.5km/h 6.4km/h - -
WindNorth - - NNE
Pressure: 1015.8 hPa 1015.9 hPa 1011.5 hPa -
Precipitation: 0.0 mm      
 
 
Tabular Data for September 29, 2020
Time Temperature Dew Point Pressure Wind Wind Speed Wind Gust Humidity Rainfall Rate (Hourly) solar
00:04 13.6 °C 9.7 °C 1011.5 hPa North 2.7 km/h 4.8 km/h 77% 0.0 mm 0 W/m2
00:09 13.6 °C 9.7 °C 1011.6 hPa North 4.1 km/h 4.8 km/h 77% 0.0 mm 0 W/m2
00:14 13.6 °C 9.7 °C 1011.6 hPa North 3.7 km/h 4.8 km/h 77% 0.0 mm 0 W/m2
00:19 13.6 °C 9.6 °C 1011.6 hPa North 4.4 km/h 4.8 km/h 76.8% 0.0 mm 0 W/m2
00:23 13.6 °C 9.7 °C 1011.7 hPa North 4.9 km/h 4.8 km/h 77% 0.0 mm 0 W/m2
00:29 13.4 °C 9.6 °C 1011.8 hPa North 3.2 km/h 4.8 km/h 77.8% 0.0 mm 0 W/m2
00:34 13.3 °C 9.6 °C 1011.8 hPa North 2.9 km/h 3.2 km/h 78.4% 0.0 mm 0 W/m2
00:39 13.2 °C 9.6 °C 1011.9 hPa North 3.1 km/h 3.2 km/h 78.9% 0.0 mm 0 W/m2
00:44 13.2 °C 9.5 °C 1011.9 hPa North 3.3 km/h 3.2 km/h 78.2% 0.0 mm 0 W/m2
00:49 13.2 °C 9.4 °C 1011.9 hPa North 2.2 km/h 3.2 km/h 78% 0.0 mm 0 W/m2
00:54 13.2 °C 9.4 °C 1011.8 hPa North 2.4 km/h 3.2 km/h 77.7% 0.0 mm 0 W/m2
00:59 13.3 °C 9.3 °C 1011.9 hPa North 3.9 km/h 3.2 km/h 76.8% 0.0 mm 0 W/m2
01:04 13.2 °C 9.2 °C 1011.9 hPa North 2.2 km/h 4.8 km/h 77% 0.0 mm 0 W/m2
01:09 13.1 °C 9.1 °C 1011.9 hPa North 2.6 km/h 3.2 km/h 77% 0.0 mm 0 W/m2
01:14 12.9 °C 9.2 °C 1011.9 hPa North 5 km/h 4.8 km/h 78% 0.0 mm 0 W/m2
01:19 12.7 °C 9.2 °C 1011.9 hPa North 4.2 km/h 6.4 km/h 79% 0.0 mm 0 W/m2
01:24 12.4 °C 9.1 °C 1012.0 hPa North 4.7 km/h 4.8 km/h 80.1% 0.0 mm 0 W/m2
01:29 12.4 °C 9.2 °C 1012.0 hPa North 4.4 km/h 4.8 km/h 80.8% 0.0 mm 0 W/m2
01:34 12.4 °C 9.2 °C 1012.0 hPa North 3.9 km/h 4.8 km/h 80.8% 0.0 mm 0 W/m2
01:39 12.3 °C 9.2 °C 1012.0 hPa North 1.6 km/h 3.2 km/h 81% 0.0 mm 0 W/m2
01:44 12.3 °C 9.2 °C 1011.9 hPa North 3 km/h 2.1 km/h 81% 0.0 mm 0 W/m2
01:49 12.3 °C 9.1 °C 1011.9 hPa North 3.4 km/h 3.2 km/h 81% 0.0 mm 0 W/m2
01:54 12.2 °C 9.2 °C 1011.9 hPa North 4.4 km/h 3.2 km/h 81.8% 0.0 mm 0 W/m2
01:59 12.3 °C 9.2 °C 1012.0 hPa North 4.3 km/h 4.8 km/h 81.7% 0.0 mm 0 W/m2
02:04 12.2 °C 9.1 °C 1012.1 hPa North 3.7 km/h 4.8 km/h 81.5% 0.0 mm 0 W/m2
02:09 12.1 °C 9.1 °C 1012.2 hPa North 3.9 km/h 3.4 km/h 82% 0.0 mm 0 W/m2
02:14 12.1 °C 9.1 °C 1012.3 hPa North 4.4 km/h 4.8 km/h 82% 0.0 mm 0 W/m2
02:19 12 °C 9 °C 1012.3 hPa North 2.7 km/h 4.8 km/h 82% 0.0 mm 0 W/m2
02:24 11.9 °C 8.9 °C 1012.3 hPa North 0.6 km/h 3.2 km/h 82% 0.0 mm 0 W/m2
02:29 11.9 °C 8.9 °C 1012.3 hPa Calm   1.6 km/h 82% 0.0 mm 0 W/m2
02:34 11.8 °C 8.9 °C 1012.4 hPa North 2.7 km/h 2.4 km/h 82.2% 0.0 mm 0 W/m2
02:39 11.7 °C 8.9 °C 1012.4 hPa North 3.9 km/h 3.2 km/h 82.8% 0.0 mm 0 W/m2
02:44 11.6 °C 8.9 °C 1012.5 hPa North 2.9 km/h 4.8 km/h 83% 0.0 mm 0 W/m2
02:49 11.6 °C 8.9 °C 1012.5 hPa North 4.2 km/h 4.8 km/h 83% 0.0 mm 0 W/m2
02:54 11.7 °C 8.8 °C 1012.5 hPa North 4 km/h 4.8 km/h 82.2% 0.0 mm 0 W/m2
02:59 11.7 °C 8.7 °C 1012.4 hPa North 2.5 km/h 3.2 km/h 82% 0.0 mm 0 W/m2
03:04 11.7 °C 8.7 °C 1012.4 hPa Calm   3.2 km/h 82% 0.0 mm 0 W/m2
03:09 11.7 °C 8.7 °C 1012.4 hPa North 1.9 km/h 1.9 km/h 82% 0.0 mm 0 W/m2
03:14 11.6 °C 8.8 °C 1012.4 hPa North 1.8 km/h 3.2 km/h 82.5% 0.0 mm 0 W/m2
03:19 11.6 °C 8.8 °C 1012.4 hPa Calm   3.2 km/h 83% 0.0 mm 0 W/m2
03:24 11.6 °C 8.8 °C 1012.4 hPa Calm     83.2% 0.0 mm 0 W/m2
03:29 11.5 °C 8.8 °C 1012.4 hPa Calm     83% 0.0 mm 0 W/m2
03:34 11.5 °C 8.7 °C 1012.5 hPa Calm     83% 0.0 mm 0 W/m2
03:39 11.6 °C 8.8 °C 1012.4 hPa Calm     83% 0.0 mm 0 W/m2
03:44 11.6 °C 8.8 °C 1012.4 hPa Calm     82.7% 0.0 mm 0 W/m2
03:49 11.4 °C 8.7 °C 1012.6 hPa Calm     83.2% 0.0 mm 0 W/m2
03:54 11.3 °C 8.6 °C 1012.5 hPa North 0.3 km/h 0.5 km/h 84% 0.0 mm 0 W/m2
03:59 11.3 °C 8.8 °C 1012.5 hPa North 2.7 km/h 3.2 km/h 84.5% 0.0 mm 0 W/m2
04:04 11.4 °C 8.8 °C 1012.6 hPa Calm   3.2 km/h 84% 0.0 mm 0 W/m2
04:09 11.4 °C 8.8 °C 1012.6 hPa Calm     84% 0.0 mm 0 W/m2
04:14 11.4 °C 8.8 °C 1012.6 hPa Calm     83.8% 0.0 mm 0 W/m2
04:19 11.4 °C 8.8 °C 1012.6 hPa Calm     84% 0.0 mm 0 W/m2
04:24 11.5 °C 8.9 °C 1012.6 hPa Calm     84% 0.0 mm 0 W/m2
04:29 11.5 °C 8.7 °C 1012.6 hPa Calm     83.2% 0.0 mm 0 W/m2
04:34 11.4 °C 8.7 °C 1012.6 hPa Calm     83.6% 0.0 mm 0 W/m2
04:39 11.3 °C 8.7 °C 1012.6 hPa Calm     84% 0.0 mm 0 W/m2
04:44 11.4 °C 8.8 °C 1012.7 hPa Calm     83.7% 0.0 mm 0 W/m2
04:49 11.5 °C 8.7 °C 1012.7 hPa Calm     83% 0.0 mm 0 W/m2
04:54 11.5 °C 8.7 °C 1012.7 hPa Calm     83% 0.0 mm 0 W/m2
04:59 11.5 °C 8.7 °C 1012.9 hPa Calm     83% 0.0 mm 0 W/m2
05:04 11.6 °C 8.8 °C 1013.1 hPa Calm     83% 0.0 mm 0 W/m2
05:09 11.5 °C 8.7 °C 1013.1 hPa Calm     83% 0.0 mm 0 W/m2
05:14 11.6 °C 8.7 °C 1013.1 hPa Calm     82.5% 0.0 mm 0 W/m2
05:19 11.6 °C 8.7 °C 1013.1 hPa Calm     82% 0.0 mm 0 W/m2
05:24 11.6 °C 8.7 °C 1013.1 hPa Calm     82% 0.0 mm 0 W/m2
05:29 11.6 °C 8.8 °C 1013.2 hPa Calm     82.9% 0.0 mm 0 W/m2
05:34 11.5 °C 8.8 °C 1013.2 hPa Calm     83.8% 0.0 mm 0 W/m2
05:39 11.4 °C 8.8 °C 1013.2 hPa Calm     84% 0.0 mm 0 W/m2
05:44 11.4 °C 8.8 °C 1013.2 hPa Calm     84.1% 0.0 mm 0 W/m2
05:49 11.4 °C 8.8 °C 1013.1 hPa Calm     84% 0.0 mm 0 W/m2
05:54 11.5 °C 8.9 °C 1013.2 hPa Calm     84% 0.0 mm 0 W/m2
05:59 11.5 °C 8.9 °C 1013.2 hPa North 1.7 km/h 2.6 km/h 83.7% 0.0 mm 0 W/m2
06:04 11.5 °C 8.8 °C 1013.1 hPa North 2.9 km/h 4.8 km/h 83.4% 0.0 mm 0 W/m2
06:09 11.5 °C 8.9 °C 1013.1 hPa North 0.9 km/h 3.2 km/h 84% 0.0 mm 0 W/m2
06:14 11.5 °C 8.8 °C 1013.1 hPa Calm   1.6 km/h 83.2% 0.0 mm 0 W/m2
06:19 11.5 °C 8.7 °C 1013.0 hPa Calm     83% 0.0 mm 0 W/m2
06:24 11.5 °C 8.7 °C 1013.0 hPa Calm     83% 0.0 mm 0 W/m2
06:29 11.5 °C 8.7 °C 1013.1 hPa Calm     83% 0.0 mm 0 W/m2
06:33 11.5 °C 8.7 °C 1013.1 hPa Calm     83% 0.0 mm 0 W/m2
06:39 11.6 °C 8.8 °C 1013.4 hPa Calm     83% 0.0 mm 0 W/m2
06:44 11.5 °C 8.8 °C 1013.4 hPa Calm     83.3% 0.0 mm 0 W/m2
06:49 11.4 °C 8.8 °C 1013.5 hPa Calm     84% 0.0 mm 0 W/m2
06:54 11.4 °C 8.8 °C 1013.6 hPa Calm     84% 0.0 mm 0 W/m2
06:59 11.4 °C 8.8 °C 1013.6 hPa Calm     84% 0.0 mm 0 W/m2
07:04 11.5 °C 8.9 °C 1013.6 hPa Calm     84% 0.0 mm 0 W/m2
07:09 11.4 °C 8.8 °C 1013.7 hPa Calm     84% 0.0 mm 0 W/m2
07:14 11.4 °C 8.8 °C 1013.9 hPa Calm     84% 0.0 mm 0 W/m2
07:19 11.4 °C 8.8 °C 1014.0 hPa Calm     84.5% 0.0 mm 5 W/m2
07:24 11.3 °C 8.9 °C 1014.0 hPa Calm     85% 0.0 mm 9 W/m2
07:29 11.4 °C 9 °C 1013.7 hPa Calm     85% 0.0 mm 11 W/m2
07:34 11.5 °C 9 °C 1013.9 hPa Calm     84.7% 0.0 mm 16 W/m2
07:39 11.6 °C 9 °C 1014.0 hPa North 0.7 km/h 1.1 km/h 84.4% 0.0 mm 18 W/m2
07:44 11.5 °C 9.1 °C 1014.1 hPa North 3.5 km/h 3.2 km/h 85% 0.0 mm 23 W/m2
07:49 11.6 °C 9 °C 1014.0 hPa North 0.3 km/h 4.8 km/h 84.2% 0.0 mm 26 W/m2
07:54 11.7 °C 9.1 °C 1014.1 hPa Calm     84% 0.0 mm 30 W/m2
07:59 11.8 °C 9.2 °C 1014.2 hPa Calm     84% 0.0 mm 35 W/m2
08:04 11.7 °C 9.1 °C 1014.3 hPa Calm     84% 0.0 mm 40 W/m2
08:09 11.7 °C 9.2 °C 1014.5 hPa Calm     84.4% 0.0 mm 46 W/m2
08:14 11.8 °C 9.3 °C 1014.5 hPa Calm     85% 0.0 mm 46 W/m2
08:19 11.8 °C 9.3 °C 1014.4 hPa Calm     84.8% 0.0 mm 47 W/m2
08:24 11.8 °C 9.2 °C 1014.5 hPa Calm     84% 0.0 mm 49 W/m2
08:29 11.9 °C 9.2 °C 1014.6 hPa Calm     84% 0.0 mm 56 W/m2
08:34 11.9 °C 9.3 °C 1014.7 hPa Calm     84% 0.0 mm 93 W/m2
08:39 12 °C 9.5 °C 1014.7 hPa Calm     84.4% 0.0 mm 95 W/m2
08:44 12.1 °C 9.5 °C 1014.9 hPa Calm     84% 0.0 mm 132 W/m2
08:48 12.3 °C 9.6 °C 1014.9 hPa Calm     84% 0.0 mm 88 W/m2
08:54 12.3 °C 9.7 °C 1014.9 hPa Calm     84% 0.0 mm 76 W/m2
08:59 12.4 °C 9.8 °C 1014.9 hPa Calm     84% 0.0 mm 81 W/m2
09:04 12.5 °C 9.9 °C 1015.0 hPa Calm     84% 0.0 mm 88 W/m2
09:09 12.5 °C 9.9 °C 1015.0 hPa Calm     84% 0.0 mm 97 W/m2
09:14 12.6 °C 9.8 °C 1015.0 hPa Calm     83.3% 0.0 mm 95 W/m2
09:19 12.6 °C 9.8 °C 1015.1 hPa Calm     83% 0.0 mm 97 W/m2
09:24 12.7 °C 9.9 °C 1015.2 hPa Calm     83.2% 0.0 mm 116 W/m2
09:29 12.8 °C 10.1 °C 1015.2 hPa North 0.5 km/h 1.4 km/h 83.3% 0.0 mm 123 W/m2
09:34 12.9 °C 10.1 °C 1015.2 hPa North 0.9 km/h 3.2 km/h 83% 0.0 mm 142 W/m2
09:39 13.1 °C 10.2 °C 1015.3 hPa Calm   1.6 km/h 82.8% 0.0 mm 253 W/m2
09:44 13.3 °C 10.3 °C 1015.3 hPa North 1.6 km/h 1.6 km/h 81.7% 0.0 mm 200 W/m2
09:49 13.5 °C 10.3 °C 1015.5 hPa Calm   1.6 km/h 81% 0.0 mm 178 W/m2
09:54 13.6 °C 10.4 °C 1015.6 hPa North 3.2 km/h 2.6 km/h 81.2% 0.0 mm 253 W/m2
09:59 13.7 °C 10.5 °C 1015.6 hPa North 3.3 km/h 4.8 km/h 81% 0.0 mm 253 W/m2
10:04 13.7 °C 10.3 °C 1015.7 hPa North 2.6 km/h 3.2 km/h 80.2% 0.0 mm 260 W/m2
10:09 13.9 °C 10.6 °C 1015.7 hPa North 2.2 km/h 3.2 km/h 80.3% 0.0 mm 260 W/m2
10:14 14.1 °C 10.5 °C 1015.8 hPa North 2.6 km/h 3.2 km/h 79.2% 0.0 mm 229 W/m2
10:19 14.1 °C 10.3 °C 1015.8 hPa North 1.8 km/h 3.2 km/h 78% 0.0 mm 267 W/m2
10:24 14.2 °C 10.2 °C 1015.9 hPa North 1.2 km/h 3.2 km/h 77% 0.0 mm 552 W/m2
10:29 14.6 °C 10.6 °C 1015.9 hPa North 4.3 km/h 3.4 km/h 77% 0.0 mm 575 W/m2
10:34 14.8 °C 10.6 °C 1015.9 hPa North 3.6 km/h 6.4 km/h 76.2% 0.0 mm 629 W/m2
10:39 15.1 °C 10.8 °C 1015.8 hPa North 4.4 km/h 4.3 km/h 75.6% 0.0 mm 520 W/m2
10:44 15.2 °C 10.9 °C 1015.8 hPa North 3.3 km/h 6.4 km/h 75% 0.0 mm 294 W/m2
10:49 15.3 °C 10.8 °C 1015.7 hPa North 0.3 km/h 3.2 km/h 74.5% 0.0 mm 287 W/m2
10:54 15.4 °C 10.9 °C 1015.8 hPa North 1.7 km/h 0.5 km/h 74.5% 0.0 mm 422 W/m2
Lodi Weather
Compliments of Weather Underground - 2.5 mb